createdAt,value
2019-01-04T00:00:26.303Z,1031.56
2019-01-04T00:01:30.408Z,1031.56
2019-01-04T00:02:34.554Z,1031.50
2019-01-04T00:03:38.748Z,1031.47
2019-01-04T00:04:42.836Z,1031.42
2019-01-04T00:05:46.985Z,1031.40
2019-01-04T00:06:51.231Z,1031.41
2019-01-04T00:07:55.263Z,1031.42
2019-01-04T00:08:59.493Z,1031.43
2019-01-04T00:10:03.647Z,1031.45
2019-01-04T00:11:07.831Z,1031.44
2019-01-04T00:12:12.001Z,1031.46
2019-01-04T00:13:16.184Z,1031.48
2019-01-04T00:14:20.335Z,1031.51
2019-01-04T00:15:24.464Z,1031.52
2019-01-04T00:16:28.577Z,1031.56
2019-01-04T00:17:32.829Z,1031.61
2019-01-04T00:18:36.874Z,1031.66
2019-01-04T00:19:41.023Z,1031.64
2019-01-04T00:20:45.232Z,1031.61
2019-01-04T00:21:50.218Z,1031.62
2019-01-04T00:22:54.011Z,1031.60
2019-01-04T00:23:58.083Z,1031.61
2019-01-04T00:25:02.269Z,1031.63
2019-01-04T00:26:06.369Z,1031.66
2019-01-04T00:27:10.591Z,1031.69
2019-01-04T00:28:14.760Z,1031.68
2019-01-04T00:29:18.845Z,1031.68
2019-01-04T00:30:22.951Z,1031.66
2019-01-04T00:31:27.209Z,1031.65
2019-01-04T00:32:31.349Z,1031.64
2019-01-04T00:33:35.410Z,1031.65
2019-01-04T00:34:39.503Z,1031.66
2019-01-04T00:35:43.713Z,1031.67
2019-01-04T00:36:47.746Z,1031.67
2019-01-04T00:37:51.959Z,1031.64
2019-01-04T00:38:56.020Z,1031.58
2019-01-04T00:40:00.207Z,1031.55
2019-01-04T00:41:04.265Z,1031.57
2019-01-04T00:42:08.396Z,1031.59
2019-01-04T00:43:12.606Z,1031.58
2019-01-04T00:44:16.761Z,1031.58
2019-01-04T00:45:20.832Z,1031.57
2019-01-04T00:46:24.923Z,1031.53
2019-01-04T00:47:29.059Z,1031.48
2019-01-04T00:48:33.179Z,1031.47
2019-01-04T00:49:37.266Z,1031.50
2019-01-04T00:50:41.483Z,1031.54
2019-01-04T00:51:46.455Z,1031.53
2019-01-04T00:52:50.190Z,1031.52
2019-01-04T00:53:54.396Z,1031.54
2019-01-04T00:54:58.463Z,1031.57
2019-01-04T00:56:02.693Z,1031.60
2019-01-04T00:57:06.871Z,1031.62
2019-01-04T00:58:11.045Z,1031.59
2019-01-04T00:59:15.179Z,1031.55
2019-01-04T01:00:19.255Z,1031.50
2019-01-04T01:01:23.459Z,1031.46
2019-01-04T01:02:27.553Z,1031.39
2019-01-04T01:03:31.737Z,1031.36
2019-01-04T01:04:35.815Z,1031.32
2019-01-04T01:05:39.941Z,1031.29
2019-01-04T01:06:44.063Z,1031.26
2019-01-04T01:07:48.255Z,1031.23
2019-01-04T01:08:52.394Z,1031.25
2019-01-04T01:09:56.573Z,1031.29
2019-01-04T01:11:00.761Z,1031.27
2019-01-04T01:12:04.844Z,1031.28
2019-01-04T01:13:08.946Z,1031.26
2019-01-04T01:14:13.160Z,1031.26
2019-01-04T01:15:20.121Z,1031.26
2019-01-04T01:16:23.363Z,1031.25
2019-01-04T01:17:28.277Z,1031.26
2019-01-04T01:18:32.000Z,1031.28
2019-01-04T01:19:36.203Z,1031.27
2019-01-04T01:20:40.271Z,1031.26
2019-01-04T01:21:44.496Z,1031.24
2019-01-04T01:22:48.629Z,1031.27
2019-01-04T01:23:52.723Z,1031.26
2019-01-04T01:24:56.864Z,1031.29
2019-01-04T01:26:01.082Z,1031.30
2019-01-04T01:27:05.246Z,1031.34
2019-01-04T01:28:09.444Z,1031.32
2019-01-04T01:29:13.465Z,1031.31
2019-01-04T01:30:17.703Z,1031.27
2019-01-04T01:31:21.878Z,1031.23
2019-01-04T01:32:26.860Z,1031.22
2019-01-04T01:33:30.605Z,1031.19
2019-01-04T01:34:34.835Z,1031.14
2019-01-04T01:35:38.858Z,1031.13
2019-01-04T01:36:43.092Z,1031.11
2019-01-04T01:37:47.280Z,1031.12
2019-01-04T01:38:51.453Z,1031.13
2019-01-04T01:39:56.372Z,1031.07
2019-01-04T01:41:00.089Z,1031.03
2019-01-04T01:42:04.330Z,1031.03
2019-01-04T01:43:08.396Z,1031.04
2019-01-04T01:44:12.524Z,1031.04
2019-01-04T01:45:16.618Z,1031.07
2019-01-04T01:46:20.728Z,1031.08
2019-01-04T01:47:24.862Z,1031.09
2019-01-04T01:48:28.986Z,1031.10
2019-01-04T01:49:34.039Z,1031.13
2019-01-04T01:50:37.747Z,1031.12
2019-01-04T01:51:41.869Z,1031.08
2019-01-04T01:52:46.081Z,1031.05
2019-01-04T01:53:50.256Z,1031.00
2019-01-04T01:54:54.396Z,1031.00
2019-01-04T01:55:58.456Z,1030.99
2019-01-04T01:57:03.519Z,1030.93
2019-01-04T01:58:08.160Z,1030.90
2019-01-04T01:59:11.891Z,1030.87
2019-01-04T02:00:16.042Z,1030.81
2019-01-04T02:01:20.143Z,1030.79
2019-01-04T02:02:24.287Z,1030.79
2019-01-04T02:03:28.384Z,1030.73
2019-01-04T02:04:33.449Z,1030.72
2019-01-04T02:05:37.146Z,1030.70
2019-01-04T02:06:41.367Z,1030.67
2019-01-04T02:07:45.567Z,1030.67
2019-01-04T02:08:49.699Z,1030.65
2019-01-04T02:09:53.783Z,1030.65
2019-01-04T02:10:58.809Z,1030.63
2019-01-04T02:12:03.421Z,1030.61
2019-01-04T02:13:07.215Z,1030.58
2019-01-04T02:14:11.319Z,1030.55
2019-01-04T02:15:15.487Z,1030.53
2019-01-04T02:16:19.575Z,1030.53
2019-01-04T02:17:23.690Z,1030.52
2019-01-04T02:18:27.909Z,1030.52
2019-01-04T02:19:32.003Z,1030.51
2019-01-04T02:20:36.202Z,1030.49
2019-01-04T02:21:40.403Z,1030.45
2019-01-04T02:22:44.610Z,1030.40
2019-01-04T02:23:48.791Z,1030.37
2019-01-04T02:24:52.841Z,1030.33
2019-01-04T02:25:57.055Z,1030.32
2019-01-04T02:27:02.030Z,1030.31
2019-01-04T02:28:05.976Z,1030.30
2019-01-04T02:29:10.102Z,1030.33
2019-01-04T02:30:14.157Z,1030.34
2019-01-04T02:31:18.373Z,1030.30
2019-01-04T02:32:23.336Z,1030.29
2019-01-04T02:33:27.139Z,1030.28
2019-01-04T02:34:31.247Z,1030.27
2019-01-04T02:35:35.440Z,1030.22
2019-01-04T02:36:39.618Z,1030.20
2019-01-04T02:37:43.694Z,1030.19
2019-01-04T02:38:47.892Z,1030.18
2019-01-04T02:39:52.056Z,1030.18
2019-01-04T02:40:56.196Z,1030.12
2019-01-04T02:42:00.237Z,1030.08
2019-01-04T02:43:04.420Z,1030.00
2019-01-04T02:44:08.487Z,1029.97
2019-01-04T02:45:12.714Z,1029.98
2019-01-04T02:46:16.887Z,1029.93
2019-01-04T02:47:21.058Z,1029.93
2019-01-04T02:48:28.206Z,1029.92
2019-01-04T02:49:31.443Z,1029.92
2019-01-04T02:50:35.628Z,1029.90
2019-01-04T02:51:39.771Z,1029.87
2019-01-04T02:52:43.851Z,1029.87
2019-01-04T02:53:47.979Z,1029.88
2019-01-04T02:54:52.115Z,1029.83
2019-01-04T02:55:56.329Z,1029.83
2019-01-04T02:57:00.465Z,1029.81
2019-01-04T02:58:04.507Z,1029.82
2019-01-04T02:59:08.666Z,1029.81
2019-01-04T03:00:12.905Z,1029.79
2019-01-04T03:01:16.939Z,1029.78
2019-01-04T03:02:21.136Z,1029.73
2019-01-04T03:03:26.065Z,1029.69
2019-01-04T03:04:29.768Z,1029.67
2019-01-04T03:05:33.906Z,1029.67
2019-01-04T03:06:38.109Z,1029.67
2019-01-04T03:07:42.136Z,1029.64
2019-01-04T03:08:46.265Z,1029.66
2019-01-04T03:09:50.458Z,1029.64
2019-01-04T03:10:54.565Z,1029.67
2019-01-04T03:11:58.737Z,1029.66
2019-01-04T03:13:02.915Z,1029.68
2019-01-04T03:14:07.030Z,1029.69
2019-01-04T03:15:11.206Z,1029.70
2019-01-04T03:16:16.190Z,1029.72
2019-01-04T03:17:20.028Z,1029.72
2019-01-04T03:18:25.155Z,1029.74
2019-01-04T03:19:28.841Z,1029.72
2019-01-04T03:20:33.059Z,1029.74
2019-01-04T03:21:37.185Z,1029.71
2019-01-04T03:22:41.411Z,1029.70
2019-01-04T03:23:45.392Z,1029.71
2019-01-04T03:24:49.520Z,1029.67
2019-01-04T03:25:53.794Z,1029.64
2019-01-04T03:26:57.875Z,1029.59
2019-01-04T03:28:01.959Z,1029.53
2019-01-04T03:29:06.095Z,1029.51
2019-01-04T03:30:10.145Z,1029.46
2019-01-04T03:31:14.382Z,1029.46
2019-01-04T03:32:18.483Z,1029.43
2019-01-04T03:33:22.667Z,1029.42
2019-01-04T03:34:27.654Z,1029.35
2019-01-04T03:35:31.387Z,1029.30
2019-01-04T03:36:35.650Z,1029.23
2019-01-04T03:37:39.718Z,1029.19
2019-01-04T03:38:43.767Z,1029.20
2019-01-04T03:39:47.888Z,1029.18
2019-01-04T03:40:52.018Z,1029.15
2019-01-04T03:41:56.197Z,1029.14
2019-01-04T03:43:00.284Z,1029.12
2019-01-04T03:44:04.376Z,1029.11
2019-01-04T03:45:08.594Z,1029.09
2019-01-04T03:46:12.664Z,1029.10
2019-01-04T03:47:17.724Z,1029.09
2019-01-04T03:48:21.535Z,1029.07
2019-01-04T03:49:25.567Z,1029.03
2019-01-04T03:50:29.772Z,1028.98
2019-01-04T03:51:33.930Z,1028.91
2019-01-04T03:52:38.095Z,1028.88
2019-01-04T03:53:42.233Z,1028.92
2019-01-04T03:54:46.407Z,1028.95
2019-01-04T03:55:50.489Z,1028.94
2019-01-04T03:56:54.571Z,1028.94
2019-01-04T03:57:58.799Z,1028.98
2019-01-04T03:59:02.843Z,1028.96
2019-01-04T04:00:06.970Z,1028.97
2019-01-04T04:01:11.190Z,1028.97
2019-01-04T04:02:15.332Z,1028.97
2019-01-04T04:03:19.431Z,1028.98
2019-01-04T04:04:23.528Z,1028.96
2019-01-04T04:05:27.662Z,1028.96
2019-01-04T04:06:31.882Z,1028.97
2019-01-04T04:07:36.092Z,1028.97
2019-01-04T04:08:40.250Z,1028.93
2019-01-04T04:09:44.410Z,1028.89
2019-01-04T04:10:48.476Z,1028.90
2019-01-04T04:11:52.682Z,1028.87
2019-01-04T04:12:56.864Z,1028.88
2019-01-04T04:14:01.065Z,1028.86
2019-01-04T04:15:05.093Z,1028.84
2019-01-04T04:16:09.318Z,1028.84
2019-01-04T04:17:13.382Z,1028.82
2019-01-04T04:18:17.623Z,1028.84
2019-01-04T04:19:21.777Z,1028.84
2019-01-04T04:20:25.946Z,1028.87
2019-01-04T04:21:29.997Z,1028.86
2019-01-04T04:22:34.261Z,1028.85
2019-01-04T04:23:38.308Z,1028.86
2019-01-04T04:24:42.568Z,1028.88
2019-01-04T04:25:46.653Z,1028.89
2019-01-04T04:26:50.747Z,1028.89
2019-01-04T04:27:55.013Z,1028.91
2019-01-04T04:29:02.058Z,1028.89
2019-01-04T04:30:05.241Z,1028.85
2019-01-04T04:31:09.439Z,1028.76
2019-01-04T04:32:13.511Z,1028.74
2019-01-04T04:33:17.758Z,1028.71
2019-01-04T04:34:21.833Z,1028.69
2019-01-04T04:35:26.028Z,1028.64
2019-01-04T04:36:30.201Z,1028.64
2019-01-04T04:37:34.325Z,1028.55
2019-01-04T04:38:38.531Z,1028.48
2019-01-04T04:39:42.686Z,1028.46
2019-01-04T04:40:46.730Z,1028.45
2019-01-04T04:41:50.951Z,1028.48
2019-01-04T04:42:55.105Z,1028.44
2019-01-04T04:43:59.198Z,1028.45
2019-01-04T04:45:03.351Z,1028.41
2019-01-04T04:46:07.464Z,1028.45
2019-01-04T04:47:11.610Z,1028.43
2019-01-04T04:48:15.757Z,1028.39
2019-01-04T04:49:19.960Z,1028.34
2019-01-04T04:50:24.064Z,1028.28
2019-01-04T04:51:28.180Z,1028.23
2019-01-04T04:52:32.420Z,1028.22
2019-01-04T04:53:36.603Z,1028.22
2019-01-04T04:54:40.773Z,1028.19
2019-01-04T04:55:44.872Z,1028.18
2019-01-04T04:56:49.124Z,1028.16
2019-01-04T04:57:53.254Z,1028.10
2019-01-04T04:58:57.356Z,1028.11
2019-01-04T05:00:01.580Z,1028.08
2019-01-04T05:01:05.763Z,1028.07
2019-01-04T05:02:09.939Z,1028.08
2019-01-04T05:03:14.076Z,1028.13
2019-01-04T05:04:18.182Z,1028.15
2019-01-04T05:05:22.408Z,1028.18
2019-01-04T05:06:26.457Z,1028.19
2019-01-04T05:07:30.686Z,1028.13
2019-01-04T05:08:34.897Z,1028.04
2019-01-04T05:09:39.041Z,1028.00
2019-01-04T05:10:43.092Z,1027.97
2019-01-04T05:11:47.312Z,1027.97
2019-01-04T05:12:51.424Z,1027.99
2019-01-04T05:13:55.624Z,1028.00
2019-01-04T05:14:59.804Z,1028.04
2019-01-04T05:16:03.890Z,1028.01
2019-01-04T05:17:08.117Z,1028.04
2019-01-04T05:18:12.280Z,1028.04
2019-01-04T05:19:16.394Z,1028.01
2019-01-04T05:20:20.596Z,1027.98
2019-01-04T05:21:24.675Z,1027.96
2019-01-04T05:22:28.883Z,1027.91
2019-01-04T05:23:32.973Z,1027.83
2019-01-04T05:24:37.178Z,1027.75
2019-01-04T05:25:41.383Z,1027.71
2019-01-04T05:26:45.552Z,1027.65
2019-01-04T05:27:49.655Z,1027.64
2019-01-04T05:28:53.732Z,1027.62
2019-01-04T05:29:57.893Z,1027.65
2019-01-04T05:31:03.141Z,1027.68
2019-01-04T05:32:06.923Z,1027.70
2019-01-04T05:33:10.972Z,1027.66
2019-01-04T05:34:15.120Z,1027.64
2019-01-04T05:35:19.370Z,1027.63
2019-01-04T05:36:23.521Z,1027.63
2019-01-04T05:37:27.700Z,1027.60
2019-01-04T05:38:31.856Z,1027.55
2019-01-04T05:39:36.061Z,1027.52
2019-01-04T05:40:40.260Z,1027.50
2019-01-04T05:41:44.384Z,1027.52
2019-01-04T05:42:48.581Z,1027.57
2019-01-04T05:43:52.762Z,1027.57
2019-01-04T05:44:56.957Z,1027.63
2019-01-04T05:46:01.040Z,1027.64
2019-01-04T05:47:05.282Z,1027.61
2019-01-04T05:48:09.440Z,1027.62
2019-01-04T05:49:13.536Z,1027.60
2019-01-04T05:50:17.643Z,1027.56
2019-01-04T05:51:21.880Z,1027.46
2019-01-04T05:52:26.059Z,1027.40
2019-01-04T05:53:30.100Z,1027.33
2019-01-04T05:54:34.172Z,1027.32
2019-01-04T05:55:38.319Z,1027.28
2019-01-04T05:56:42.536Z,1027.18
2019-01-04T05:57:46.716Z,1027.12
2019-01-04T05:58:50.748Z,1027.08
2019-01-04T05:59:54.892Z,1027.07
2019-01-04T06:00:59.023Z,1027.05
2019-01-04T06:02:03.284Z,1027.04
2019-01-04T06:03:07.456Z,1027.07
2019-01-04T06:04:11.633Z,1027.10
2019-01-04T06:05:15.790Z,1027.05
2019-01-04T06:06:19.896Z,1026.99
2019-01-04T06:07:24.087Z,1026.93
2019-01-04T06:08:28.326Z,1026.89
2019-01-04T06:09:32.458Z,1026.88
2019-01-04T06:10:39.602Z,1026.87
2019-01-04T06:11:42.866Z,1026.89
2019-01-04T06:12:46.911Z,1026.88
2019-01-04T06:13:51.171Z,1026.89
2019-01-04T06:14:55.302Z,1026.84
2019-01-04T06:15:59.492Z,1026.82
2019-01-04T06:17:03.666Z,1026.80
2019-01-04T06:18:07.733Z,1026.79
2019-01-04T06:19:11.925Z,1026.77
2019-01-04T06:20:16.050Z,1026.68
2019-01-04T06:21:20.157Z,1026.67
2019-01-04T06:22:24.377Z,1026.64
2019-01-04T06:23:28.456Z,1026.65
2019-01-04T06:24:32.693Z,1026.63
2019-01-04T06:25:36.836Z,1026.61
2019-01-04T06:26:41.075Z,1026.60
2019-01-04T06:27:45.138Z,1026.65
2019-01-04T06:28:49.278Z,1026.66
2019-01-04T06:29:53.517Z,1026.66
2019-01-04T06:30:57.569Z,1026.67
2019-01-04T06:32:01.718Z,1026.69
2019-01-04T06:33:05.847Z,1026.67
2019-01-04T06:34:10.068Z,1026.62
2019-01-04T06:35:14.190Z,1026.60
2019-01-04T06:36:18.394Z,1026.57
2019-01-04T06:37:22.593Z,1026.61
2019-01-04T06:38:26.707Z,1026.60
2019-01-04T06:39:30.948Z,1026.54
2019-01-04T06:40:35.152Z,1026.49
2019-01-04T06:41:39.360Z,1026.44
2019-01-04T06:42:43.605Z,1026.38
2019-01-04T06:43:47.658Z,1026.40
2019-01-04T06:44:51.848Z,1026.40
2019-01-04T06:45:56.060Z,1026.38
2019-01-04T06:47:00.170Z,1026.38
2019-01-04T06:48:04.247Z,1026.39
2019-01-04T06:49:08.483Z,1026.40
2019-01-04T06:50:12.609Z,1026.42
2019-01-04T06:51:17.595Z,1026.45
2019-01-04T06:52:21.463Z,1026.45
2019-01-04T06:53:25.581Z,1026.44
2019-01-04T06:54:29.716Z,1026.46
2019-01-04T06:55:33.914Z,1026.44
2019-01-04T06:56:38.034Z,1026.44
2019-01-04T06:57:42.255Z,1026.44
2019-01-04T06:58:46.455Z,1026.39
2019-01-04T06:59:50.530Z,1026.36
2019-01-04T07:00:54.781Z,1026.35
2019-01-04T07:01:58.980Z,1026.34
2019-01-04T07:03:03.193Z,1026.35
2019-01-04T07:04:07.328Z,1026.36
2019-01-04T07:05:11.393Z,1026.33
2019-01-04T07:06:15.636Z,1026.32
2019-01-04T07:07:19.829Z,1026.29
2019-01-04T07:08:24.042Z,1026.27
2019-01-04T07:09:28.222Z,1026.27
2019-01-04T07:10:32.272Z,1026.21
2019-01-04T07:11:36.524Z,1026.21
2019-01-04T07:12:40.721Z,1026.20
2019-01-04T07:13:44.799Z,1026.14
2019-01-04T07:14:49.000Z,1026.13
2019-01-04T07:15:53.206Z,1026.10
2019-01-04T07:16:57.392Z,1026.08
2019-01-04T07:18:01.542Z,1026.08
2019-01-04T07:19:05.747Z,1026.11
2019-01-04T07:20:09.931Z,1026.11
2019-01-04T07:21:14.110Z,1026.11
2019-01-04T07:22:18.303Z,1026.14
2019-01-04T07:23:22.418Z,1026.07
2019-01-04T07:24:26.554Z,1026.12
2019-01-04T07:25:30.704Z,1026.12
2019-01-04T07:26:34.927Z,1026.12
2019-01-04T07:27:39.106Z,1026.14
2019-01-04T07:28:43.212Z,1026.12
2019-01-04T07:29:47.447Z,1026.10
2019-01-04T07:30:51.632Z,1026.07
2019-01-04T07:31:55.725Z,1026.05
2019-01-04T07:32:59.952Z,1026.03
2019-01-04T07:34:04.059Z,1025.99
2019-01-04T07:35:08.172Z,1025.98
2019-01-04T07:36:12.283Z,1025.97
2019-01-04T07:37:16.503Z,1025.97
2019-01-04T07:38:20.678Z,1025.94
2019-01-04T07:39:24.785Z,1025.91
2019-01-04T07:40:29.015Z,1025.89
2019-01-04T07:41:33.116Z,1025.89
2019-01-04T07:42:37.253Z,1025.89
2019-01-04T07:43:41.494Z,1025.86
2019-01-04T07:44:45.580Z,1025.87
2019-01-04T07:45:49.820Z,1025.89
2019-01-04T07:46:53.995Z,1025.92
2019-01-04T07:47:58.088Z,1025.91
2019-01-04T07:49:02.260Z,1025.89
2019-01-04T07:50:06.485Z,1025.90
2019-01-04T07:51:10.671Z,1025.95
2019-01-04T07:52:14.816Z,1025.99
2019-01-04T07:53:18.985Z,1026.00
2019-01-04T07:54:23.098Z,1026.04
2019-01-04T07:55:27.218Z,1026.03
2019-01-04T07:56:31.465Z,1026.03
2019-01-04T07:57:35.554Z,1026.03
2019-01-04T07:58:39.709Z,1026.05
2019-01-04T07:59:43.867Z,1026.08
2019-01-04T08:00:48.099Z,1026.06
2019-01-04T08:01:52.269Z,1026.05
2019-01-04T08:02:56.478Z,1026.03
2019-01-04T08:04:00.569Z,1025.98
2019-01-04T08:05:04.824Z,1025.97
2019-01-04T08:06:08.992Z,1025.93
2019-01-04T08:07:13.085Z,1025.88
2019-01-04T08:08:17.265Z,1025.87
2019-01-04T08:09:21.388Z,1025.85
2019-01-04T08:10:25.627Z,1025.87
2019-01-04T08:11:29.737Z,1025.84
2019-01-04T08:12:33.950Z,1025.79
2019-01-04T08:13:38.092Z,1025.78
2019-01-04T08:14:42.330Z,1025.75
2019-01-04T08:15:46.510Z,1025.72
2019-01-04T08:16:50.697Z,1025.72
2019-01-04T08:17:54.792Z,1025.72
2019-01-04T08:18:59.033Z,1025.70
2019-01-04T08:20:03.226Z,1025.65
2019-01-04T08:21:07.418Z,1025.69
2019-01-04T08:22:11.599Z,1025.71
2019-01-04T08:23:15.777Z,1025.68
2019-01-04T08:24:19.838Z,1025.68
2019-01-04T08:25:24.072Z,1025.66
2019-01-04T08:26:28.293Z,1025.64
2019-01-04T08:27:32.386Z,1025.62
2019-01-04T08:28:36.592Z,1025.59
2019-01-04T08:29:40.753Z,1025.59
2019-01-04T08:30:44.873Z,1025.57
2019-01-04T08:31:49.053Z,1025.56
2019-01-04T08:32:53.221Z,1025.57
2019-01-04T08:33:57.296Z,1025.56
2019-01-04T08:35:01.581Z,1025.53
2019-01-04T08:36:05.740Z,1025.53
2019-01-04T08:37:09.823Z,1025.51
2019-01-04T08:38:13.971Z,1025.51
2019-01-04T08:39:18.194Z,1025.45
2019-01-04T08:40:22.295Z,1025.44
2019-01-04T08:41:26.452Z,1025.44
2019-01-04T08:42:30.708Z,1025.40
2019-01-04T08:43:34.795Z,1025.44
2019-01-04T08:44:38.957Z,1025.47
2019-01-04T08:45:43.212Z,1025.47
2019-01-04T08:46:47.422Z,1025.47
2019-01-04T08:47:51.456Z,1025.45
2019-01-04T08:48:55.711Z,1025.40
2019-01-04T08:49:59.875Z,1025.37
2019-01-04T08:51:03.905Z,1025.36
2019-01-04T08:52:08.119Z,1025.36
2019-01-04T08:53:12.281Z,1025.39
2019-01-04T08:54:16.428Z,1025.40
2019-01-04T08:55:20.573Z,1025.36
2019-01-04T08:56:24.823Z,1025.31
2019-01-04T08:57:28.924Z,1025.26
2019-01-04T08:58:33.046Z,1025.19
2019-01-04T08:59:37.287Z,1025.14
2019-01-04T09:00:41.455Z,1025.11
2019-01-04T09:01:45.657Z,1025.09
2019-01-04T09:02:49.837Z,1025.09
2019-01-04T09:03:53.934Z,1025.11
2019-01-04T09:04:58.143Z,1025.09
2019-01-04T09:06:02.221Z,1025.08
2019-01-04T09:07:06.473Z,1025.11
2019-01-04T09:08:10.587Z,1025.13
2019-01-04T09:09:14.792Z,1025.09
2019-01-04T09:10:18.959Z,1025.11
2019-01-04T09:11:23.194Z,1025.07
2019-01-04T09:12:27.387Z,1025.07
2019-01-04T09:13:31.455Z,1025.03
2019-01-04T09:14:35.636Z,1025.01
2019-01-04T09:15:39.842Z,1025.03
2019-01-04T09:16:44.092Z,1025.02
2019-01-04T09:17:48.271Z,1025.04
2019-01-04T09:18:52.506Z,1025.08
2019-01-04T09:19:56.683Z,1025.07
2019-01-04T09:21:00.866Z,1025.09
2019-01-04T09:22:05.050Z,1025.14
2019-01-04T09:23:09.232Z,1025.13
2019-01-04T09:24:13.402Z,1025.12
2019-01-04T09:25:17.608Z,1025.12
2019-01-04T09:26:21.699Z,1025.15
2019-01-04T09:27:25.992Z,1025.17
2019-01-04T09:28:30.087Z,1025.16
2019-01-04T09:29:34.260Z,1025.10
2019-01-04T09:30:38.443Z,1025.13
2019-01-04T09:31:42.732Z,1025.15
2019-01-04T09:32:46.837Z,1025.22
2019-01-04T09:33:50.976Z,1025.15
2019-01-04T09:34:55.236Z,1025.11
2019-01-04T09:35:59.428Z,1025.08
2019-01-04T09:37:03.517Z,1025.07
2019-01-04T09:38:07.661Z,1025.01
2019-01-04T09:39:11.810Z,1024.97
2019-01-04T09:40:16.021Z,1024.97
2019-01-04T09:41:20.229Z,1024.92
2019-01-04T09:42:24.375Z,1024.92
2019-01-04T09:43:28.598Z,1024.85
2019-01-04T09:44:32.796Z,1024.77
2019-01-04T09:45:36.882Z,1024.75
2019-01-04T09:46:41.013Z,1024.70
2019-01-04T09:47:45.359Z,1024.64
2019-01-04T09:48:49.587Z,1024.59
2019-01-04T09:49:53.747Z,1024.59
2019-01-04T09:50:57.897Z,1024.58
2019-01-04T09:52:02.185Z,1024.57
2019-01-04T09:53:06.474Z,1024.58
2019-01-04T09:54:10.625Z,1024.49
2019-01-04T09:55:14.762Z,1024.45
2019-01-04T09:56:19.009Z,1024.46
2019-01-04T09:57:23.631Z,1024.42
2019-01-04T09:58:27.398Z,1024.42
2019-01-04T09:59:31.517Z,1024.39
2019-01-04T10:00:35.776Z,1024.37
2019-01-04T10:01:39.964Z,1024.30
2019-01-04T10:02:44.102Z,1024.24
2019-01-04T10:03:48.309Z,1024.18
2019-01-04T10:04:52.523Z,1024.14
2019-01-04T10:05:56.627Z,1024.14
2019-01-04T10:07:00.765Z,1024.12
2019-01-04T10:08:05.015Z,1024.10
2019-01-04T10:09:09.143Z,1024.04
2019-01-04T10:10:13.278Z,1024.07
2019-01-04T10:11:17.511Z,1024.03
2019-01-04T10:12:21.713Z,1023.98
2019-01-04T10:13:25.916Z,1023.99
2019-01-04T10:14:30.000Z,1023.96
2019-01-04T10:15:34.173Z,1023.96
2019-01-04T10:16:38.346Z,1023.98
2019-01-04T10:17:42.542Z,1023.95
2019-01-04T10:18:46.799Z,1023.92
2019-01-04T10:19:50.858Z,1023.83
2019-01-04T10:20:55.156Z,1023.76
2019-01-04T10:21:59.328Z,1023.73
2019-01-04T10:23:03.516Z,1023.69
2019-01-04T10:24:07.628Z,1023.72
2019-01-04T10:25:11.729Z,1023.67
2019-01-04T10:26:15.956Z,1023.68
2019-01-04T10:27:20.194Z,1023.67
2019-01-04T10:28:24.284Z,1023.62
2019-01-04T10:29:28.540Z,1023.61
2019-01-04T10:30:32.624Z,1023.54
2019-01-04T10:31:36.855Z,1023.50
2019-01-04T10:32:41.045Z,1023.43
2019-01-04T10:33:45.134Z,1023.40
2019-01-04T10:34:49.383Z,1023.38
2019-01-04T10:35:53.538Z,1023.33
2019-01-04T10:36:57.786Z,1023.29
2019-01-04T10:38:01.945Z,1023.26
2019-01-04T10:39:06.053Z,1023.25
2019-01-04T10:40:11.131Z,1023.23
2019-01-04T10:41:14.437Z,1023.23
2019-01-04T10:42:18.629Z,1023.20
2019-01-04T10:43:22.820Z,1023.22
2019-01-04T10:44:26.964Z,1023.22
2019-01-04T10:45:31.153Z,1023.21
2019-01-04T10:46:35.369Z,1023.29
2019-01-04T10:47:39.462Z,1023.25
2019-01-04T10:48:43.702Z,1023.22
2019-01-04T10:49:47.785Z,1023.20
2019-01-04T10:50:52.045Z,1023.15
2019-01-04T10:51:56.249Z,1023.14
2019-01-04T10:53:00.248Z,1023.15
2019-01-04T10:54:04.478Z,1023.15
2019-01-04T10:55:08.740Z,1023.18
2019-01-04T10:56:12.927Z,1023.18
2019-01-04T10:57:17.072Z,1023.20
2019-01-04T10:58:21.187Z,1023.14
2019-01-04T10:59:25.331Z,1023.08
2019-01-04T11:00:29.450Z,1022.99
2019-01-04T11:01:33.725Z,1022.86
2019-01-04T11:02:37.917Z,1022.85
2019-01-04T11:03:42.123Z,1022.92
2019-01-04T11:04:46.331Z,1022.95
2019-01-04T11:05:50.585Z,1022.94
2019-01-04T11:06:54.758Z,1022.99
2019-01-04T11:07:58.977Z,1022.99
2019-01-04T11:09:03.112Z,1022.92
2019-01-04T11:10:07.362Z,1022.86
2019-01-04T11:11:11.469Z,1022.86
2019-01-04T11:12:15.964Z,1022.86
2019-01-04T11:13:19.755Z,1022.85
2019-01-04T11:14:23.981Z,1022.80
2019-01-04T11:15:28.164Z,1022.74
2019-01-04T11:16:32.362Z,1022.74
2019-01-04T11:17:36.570Z,1022.79
2019-01-04T11:18:40.933Z,1022.79
2019-01-04T11:19:44.965Z,1022.79
2019-01-04T11:20:49.119Z,1022.81
2019-01-04T11:21:53.366Z,1022.74
2019-01-04T11:22:57.459Z,1022.72
2019-01-04T11:24:01.597Z,1022.69
2019-01-04T11:25:06.659Z,1022.65
2019-01-04T11:26:10.523Z,1022.63
2019-01-04T11:27:14.755Z,1022.59
2019-01-04T11:28:18.967Z,1022.60
2019-01-04T11:29:23.141Z,1022.55
2019-01-04T11:30:27.316Z,1022.53
2019-01-04T11:31:31.549Z,1022.53
2019-01-04T11:32:35.596Z,1022.53
2019-01-04T11:33:40.697Z,1022.57
2019-01-04T11:34:44.562Z,1022.63
2019-01-04T11:35:48.738Z,1022.61
2019-01-04T11:36:52.880Z,1022.59
2019-01-04T11:37:57.083Z,1022.58
2019-01-04T11:39:01.151Z,1022.58
2019-01-04T11:40:05.397Z,1022.61
2019-01-04T11:41:09.608Z,1022.64
2019-01-04T11:42:13.838Z,1022.62
2019-01-04T11:43:18.027Z,1022.55
2019-01-04T11:44:22.254Z,1022.47
2019-01-04T11:45:26.369Z,1022.46
2019-01-04T11:46:30.602Z,1022.47
2019-01-04T11:47:34.842Z,1022.47
2019-01-04T11:48:39.044Z,1022.53
2019-01-04T11:49:43.239Z,1022.55
2019-01-04T11:50:47.377Z,1022.63
2019-01-04T11:51:51.682Z,1022.68
2019-01-04T11:52:55.782Z,1022.75
2019-01-04T11:53:59.955Z,1022.81
2019-01-04T11:55:04.113Z,1022.81
2019-01-04T11:56:08.384Z,1022.81
2019-01-04T11:57:12.488Z,1022.80
2019-01-04T11:58:16.610Z,1022.82
2019-01-04T11:59:20.770Z,1022.83
2019-01-04T12:00:24.903Z,1022.79
2019-01-04T12:01:29.160Z,1022.78
2019-01-04T12:02:33.374Z,1022.83
2019-01-04T12:03:37.454Z,1022.81
2019-01-04T12:04:41.598Z,1022.78
2019-01-04T12:05:45.779Z,1022.75
2019-01-04T12:06:50.030Z,1022.78
2019-01-04T12:07:54.239Z,1022.79
2019-01-04T12:08:58.353Z,1022.82
2019-01-04T12:10:02.575Z,1022.85
2019-01-04T12:11:06.767Z,1022.84
2019-01-04T12:12:10.994Z,1022.83
2019-01-04T12:13:15.089Z,1022.77
2019-01-04T12:14:19.339Z,1022.74
2019-01-04T12:15:23.492Z,1022.73
2019-01-04T12:16:27.738Z,1022.69
2019-01-04T12:17:31.969Z,1022.68
2019-01-04T12:18:36.149Z,1022.67
2019-01-04T12:19:40.238Z,1022.62
2019-01-04T12:20:45.525Z,1022.59
2019-01-04T12:21:48.605Z,1022.51
2019-01-04T12:22:52.826Z,1022.43
2019-01-04T12:23:57.039Z,1022.37
2019-01-04T12:25:01.263Z,1022.29
2019-01-04T12:26:05.349Z,1022.29
2019-01-04T12:27:09.569Z,1022.21
2019-01-04T12:28:13.734Z,1022.18
2019-01-04T12:29:17.903Z,1022.15
2019-01-04T12:30:22.123Z,1022.14
2019-01-04T12:31:26.305Z,1022.18
2019-01-04T12:32:30.528Z,1022.13
2019-01-04T12:33:34.712Z,1022.12
2019-01-04T12:34:38.739Z,1022.14
2019-01-04T12:35:42.978Z,1022.12
2019-01-04T12:36:47.103Z,1022.13
2019-01-04T12:37:51.411Z,1022.08
2019-01-04T12:38:58.523Z,1022.05
2019-01-04T12:40:01.816Z,1022.00
2019-01-04T12:41:05.922Z,1022.05
2019-01-04T12:42:10.038Z,1022.05
2019-01-04T12:43:14.265Z,1022.06
2019-01-04T12:44:18.483Z,1022.09
2019-01-04T12:45:22.579Z,1022.06
2019-01-04T12:46:26.843Z,1022.04
2019-01-04T12:47:31.862Z,1022.04
2019-01-04T12:48:35.705Z,1022.03
2019-01-04T12:49:39.916Z,1022.01
2019-01-04T12:50:44.115Z,1021.99
2019-01-04T12:51:48.216Z,1021.98
2019-01-04T12:52:52.477Z,1021.97
2019-01-04T12:53:56.682Z,1021.98
2019-01-04T12:55:00.880Z,1022.00
2019-01-04T12:56:05.122Z,1022.03